createdAt,value
2022-12-14T00:00:59.890Z,75.58
2022-12-14T00:02:01.287Z,75.59
2022-12-14T00:03:02.926Z,75.59
2022-12-14T00:04:04.601Z,75.61
2022-12-14T00:05:07.057Z,75.43
2022-12-14T00:06:09.711Z,75.56
2022-12-14T00:07:11.092Z,75.43
2022-12-14T00:08:13.655Z,75.33
2022-12-14T00:09:15.227Z,75.59
2022-12-14T00:10:16.630Z,75.29
2022-12-14T00:11:28.085Z,75.35
2022-12-14T00:12:29.440Z,75.27
2022-12-14T00:13:30.763Z,75.17
2022-12-14T00:14:32.191Z,75.32
2022-12-14T00:15:35.316Z,75.28
2022-12-14T00:16:36.754Z,75.08
2022-12-14T00:17:39.116Z,75.07
2022-12-14T00:18:40.906Z,75.16
2022-12-14T00:19:42.538Z,75.08
2022-12-14T00:20:44.338Z,75.08
2022-12-14T00:21:45.907Z,75.11
2022-12-14T00:22:47.340Z,75.18
2022-12-14T00:23:52.262Z,75.05
2022-12-14T00:24:53.794Z,75.23
2022-12-14T00:25:55.424Z,75.04
2022-12-14T00:26:57.269Z,74.90
2022-12-14T00:27:58.660Z,75.13
2022-12-14T00:29:01.039Z,75.00
2022-12-14T00:30:03.427Z,75.01
2022-12-14T00:31:05.108Z,75.07
2022-12-14T00:32:06.556Z,75.09
2022-12-14T00:33:08.036Z,74.89
2022-12-14T00:34:09.444Z,74.88
2022-12-14T00:35:12.165Z,74.96
2022-12-14T00:36:14.004Z,74.99
2022-12-14T00:37:15.520Z,74.97
2022-12-14T00:38:17.448Z,75.00
2022-12-14T00:39:18.802Z,75.00
2022-12-14T00:40:20.407Z,74.96
2022-12-14T00:41:21.943Z,74.87
2022-12-14T00:42:23.483Z,75.08
2022-12-14T00:43:25.165Z,74.81
2022-12-14T00:44:26.604Z,74.86
2022-12-14T00:45:28.098Z,75.01
2022-12-14T00:46:29.709Z,74.87
2022-12-14T00:47:33.875Z,74.81
2022-12-14T00:48:39.426Z,74.99
2022-12-14T00:49:41.451Z,74.88
2022-12-14T00:50:43.995Z,74.85
2022-12-14T00:51:50.362Z,74.89
2022-12-14T00:52:51.850Z,74.95
2022-12-14T00:53:53.290Z,74.75
2022-12-14T00:54:54.804Z,74.79
2022-12-14T00:55:56.314Z,74.84
2022-12-14T00:56:57.856Z,74.85
2022-12-14T00:57:59.352Z,74.88
2022-12-14T00:59:00.738Z,74.67
2022-12-14T01:00:02.473Z,74.74
2022-12-14T01:01:09.218Z,74.46
2022-12-14T01:02:10.736Z,74.64
2022-12-14T01:03:12.700Z,74.61
2022-12-14T01:04:17.041Z,74.42
2022-12-14T01:05:18.544Z,74.46
2022-12-14T01:06:21.775Z,74.56
2022-12-14T01:07:23.198Z,74.42
2022-12-14T01:08:24.749Z,74.53
2022-12-14T01:09:26.435Z,74.58
2022-12-14T01:10:27.976Z,74.55
2022-12-14T01:11:29.550Z,74.79
2022-12-14T01:12:31.069Z,74.54
2022-12-14T01:13:32.511Z,74.43
2022-12-14T01:14:35.902Z,74.48
2022-12-14T01:15:37.383Z,74.60
2022-12-14T01:16:39.046Z,74.34
2022-12-14T01:17:40.393Z,74.41
2022-12-14T01:18:42.574Z,74.37
2022-12-14T01:19:43.999Z,74.36
2022-12-14T01:20:50.491Z,74.42
2022-12-14T01:21:52.816Z,74.31
2022-12-14T01:22:57.746Z,74.38
2022-12-14T01:24:00.874Z,74.29
2022-12-14T01:25:02.762Z,74.14
2022-12-14T01:26:04.252Z,74.25
2022-12-14T01:27:05.754Z,74.20
2022-12-14T01:28:07.207Z,74.20
2022-12-14T01:29:09.846Z,74.29
2022-12-14T01:30:11.477Z,74.23
2022-12-14T01:31:17.822Z,74.21
2022-12-14T01:32:19.750Z,74.26
2022-12-14T01:33:21.306Z,74.19
2022-12-14T01:34:22.709Z,74.22
2022-12-14T01:35:24.223Z,74.07
2022-12-14T01:36:27.049Z,74.18
2022-12-14T01:37:28.626Z,74.20
2022-12-14T01:38:30.041Z,74.18
2022-12-14T01:39:31.488Z,74.13
2022-12-14T01:40:32.879Z,74.18
2022-12-14T01:41:38.857Z,74.15
2022-12-14T01:42:40.555Z,74.12
2022-12-14T01:43:46.463Z,74.08
2022-12-14T01:44:55.227Z,74.16
2022-12-14T01:45:57.006Z,74.14
2022-12-14T01:46:59.149Z,74.16
2022-12-14T01:48:02.479Z,74.13
2022-12-14T01:49:15.761Z,74.26
2022-12-14T01:50:17.470Z,74.10
2022-12-14T01:51:18.920Z,74.19
2022-12-14T01:52:40.223Z,74.34
2022-12-14T01:53:41.969Z,74.11
2022-12-14T01:54:49.945Z,74.08
2022-12-14T01:55:52.991Z,74.03
2022-12-14T01:56:55.006Z,74.09
2022-12-14T01:58:02.771Z,73.98
2022-12-14T01:59:07.332Z,73.82
2022-12-14T02:00:11.954Z,73.76
2022-12-14T02:01:14.443Z,73.84
2022-12-14T02:02:16.906Z,73.89
2022-12-14T02:03:31.324Z,74.00
2022-12-14T02:04:36.629Z,73.81
2022-12-14T02:05:42.798Z,73.89
2022-12-14T02:06:46.010Z,73.77
2022-12-14T02:07:49.204Z,73.86
2022-12-14T02:08:52.048Z,73.76
2022-12-14T02:09:56.293Z,73.92
2022-12-14T02:10:58.171Z,73.88
2022-12-14T02:12:19.890Z,73.90
2022-12-14T02:13:38.343Z,73.76
2022-12-14T02:14:41.182Z,73.82
2022-12-14T02:15:43.425Z,73.79
2022-12-14T02:16:44.967Z,73.76
2022-12-14T02:17:46.571Z,73.87
2022-12-14T02:18:47.928Z,73.81
2022-12-14T02:19:49.894Z,73.95
2022-12-14T02:20:58.751Z,73.81
2022-12-14T02:22:17.421Z,73.72
2022-12-14T02:23:31.019Z,73.86
2022-12-14T02:24:44.767Z,73.85
2022-12-14T02:25:56.364Z,73.81
2022-12-14T02:27:14.794Z,73.81
2022-12-14T02:28:35.417Z,73.86
2022-12-14T02:29:49.919Z,73.83
2022-12-14T02:32:18.452Z,73.66
2022-12-14T02:33:22.632Z,73.75
2022-12-14T02:34:31.659Z,73.81
2022-12-14T02:35:42.305Z,73.58
2022-12-14T02:36:59.661Z,73.82
2022-12-14T02:38:16.970Z,73.87
2022-12-14T02:39:32.593Z,73.68
2022-12-14T02:41:03.235Z,73.59
2022-12-14T02:42:13.129Z,73.64
2022-12-14T02:43:14.496Z,73.82
2022-12-14T02:44:18.400Z,73.76
2022-12-14T02:45:38.869Z,73.65
2022-12-14T02:46:50.044Z,73.84
2022-12-14T02:47:54.664Z,73.65
2022-12-14T02:49:15.086Z,73.87
2022-12-14T02:50:22.972Z,73.67
2022-12-14T02:51:40.245Z,73.72
2022-12-14T02:53:00.383Z,73.67
2022-12-14T02:54:04.473Z,73.53
2022-12-14T02:55:16.054Z,73.74
2022-12-14T02:56:22.147Z,73.58
2022-12-14T02:57:43.890Z,73.75
2022-12-14T02:58:50.372Z,73.79
2022-12-14T02:59:53.952Z,73.63
2022-12-14T03:00:56.027Z,73.82
2022-12-14T03:02:00.198Z,73.86
2022-12-14T03:03:03.855Z,73.75
2022-12-14T03:04:06.046Z,73.89
2022-12-14T03:05:07.611Z,73.80
2022-12-14T03:06:17.045Z,73.87
2022-12-14T03:07:26.172Z,73.90
2022-12-14T03:08:29.843Z,73.77
2022-12-14T03:09:31.894Z,73.73
2022-12-14T03:10:42.116Z,73.83
2022-12-14T03:12:02.129Z,73.78
2022-12-14T03:13:15.956Z,73.82
2022-12-14T03:14:24.966Z,73.79
2022-12-14T03:15:27.647Z,73.88
2022-12-14T03:16:30.573Z,73.74
2022-12-14T03:17:33.404Z,73.97
2022-12-14T03:18:37.138Z,73.82
2022-12-14T03:19:45.594Z,74.00
2022-12-14T03:20:51.731Z,73.72
2022-12-14T03:21:55.605Z,73.66
2022-12-14T03:22:59.213Z,73.92
2022-12-14T03:24:02.604Z,73.88
2022-12-14T03:25:24.866Z,73.73
2022-12-14T03:26:26.307Z,73.65
2022-12-14T03:27:32.344Z,73.91
2022-12-14T03:28:44.911Z,74.11
2022-12-14T03:29:53.026Z,73.91
2022-12-14T03:31:00.973Z,73.78
2022-12-14T03:32:06.373Z,73.86
2022-12-14T03:33:11.690Z,73.70
2022-12-14T03:34:14.905Z,73.95
2022-12-14T03:35:32.190Z,73.89
2022-12-14T03:36:56.169Z,73.81
2022-12-14T03:38:07.631Z,73.90
2022-12-14T03:39:12.279Z,73.97
2022-12-14T03:40:14.212Z,73.78
2022-12-14T03:41:21.671Z,73.94
2022-12-14T03:42:38.636Z,73.87
2022-12-14T03:43:58.676Z,73.97
2022-12-14T03:45:18.696Z,73.94
2022-12-14T03:46:22.847Z,73.95
2022-12-14T03:47:34.608Z,74.09
2022-12-14T03:48:40.202Z,73.94
2022-12-14T03:49:50.807Z,74.16
2022-12-14T03:51:24.157Z,74.19
2022-12-14T03:52:41.714Z,74.15
2022-12-14T03:54:01.645Z,74.08
2022-12-14T03:55:05.884Z,74.07
2022-12-14T03:56:26.181Z,74.06
2022-12-14T03:57:46.263Z,74.01
2022-12-14T03:58:56.810Z,74.16
2022-12-14T04:00:09.916Z,74.20
2022-12-14T04:01:29.310Z,74.09
2022-12-14T04:02:39.161Z,74.12
2022-12-14T04:03:51.608Z,74.16
2022-12-14T04:04:57.086Z,73.94
2022-12-14T04:06:02.223Z,74.10
2022-12-14T04:07:06.477Z,74.21
2022-12-14T04:08:07.943Z,74.21
2022-12-14T04:09:15.416Z,74.12
2022-12-14T04:10:40.977Z,74.05
2022-12-14T04:12:05.255Z,74.22
2022-12-14T04:13:30.594Z,74.37
2022-12-14T04:15:03.598Z,73.96
2022-12-14T04:16:26.546Z,74.16
2022-12-14T04:17:49.323Z,74.36
2022-12-14T04:19:00.053Z,74.12
2022-12-14T04:20:04.717Z,74.21
2022-12-14T04:21:19.155Z,74.37
2022-12-14T04:22:23.165Z,73.99
2022-12-14T04:23:49.252Z,74.11
2022-12-14T04:25:15.836Z,74.27
2022-12-14T04:26:22.115Z,74.33
2022-12-14T04:27:34.612Z,74.33
2022-12-14T04:29:04.084Z,74.37
2022-12-14T04:30:06.688Z,74.23
2022-12-14T04:31:09.856Z,74.18
2022-12-14T04:32:22.650Z,74.35
2022-12-14T04:33:42.863Z,74.25
2022-12-14T04:34:47.352Z,74.32
2022-12-14T04:35:49.676Z,74.18
2022-12-14T04:36:55.267Z,74.23
2022-12-14T04:37:59.754Z,74.14
2022-12-14T04:39:05.820Z,74.23
2022-12-14T04:40:09.944Z,74.34
2022-12-14T04:41:14.010Z,74.33
2022-12-14T04:42:17.950Z,74.51
2022-12-14T04:43:21.772Z,74.20
2022-12-14T04:44:27.983Z,74.44
2022-12-14T04:45:32.223Z,74.26
2022-12-14T04:46:40.494Z,74.37
2022-12-14T04:47:45.472Z,74.24
2022-12-14T04:49:05.434Z,74.39
2022-12-14T04:50:14.236Z,74.32
2022-12-14T04:51:33.837Z,74.31
2022-12-14T04:52:41.841Z,74.24
2022-12-14T04:53:45.019Z,74.23
2022-12-14T04:54:53.088Z,74.19
2022-12-14T04:56:07.921Z,74.18
2022-12-14T04:57:28.816Z,74.07
2022-12-14T04:58:31.041Z,74.57
2022-12-14T04:59:32.417Z,74.50
2022-12-14T05:00:36.341Z,74.26
2022-12-14T05:01:45.934Z,74.05
2022-12-14T05:02:56.471Z,74.50
2022-12-14T05:04:06.066Z,74.23
2022-12-14T05:05:28.341Z,74.26
2022-12-14T05:06:37.184Z,74.47
2022-12-14T05:07:56.780Z,74.30
2022-12-14T05:09:01.146Z,74.34
2022-12-14T05:10:02.518Z,74.16
2022-12-14T05:11:49.645Z,74.43
2022-12-14T05:12:33.789Z,74.59
2022-12-14T05:13:49.152Z,74.58
2022-12-14T05:14:53.576Z,74.20
2022-12-14T05:15:55.941Z,74.21
2022-12-14T05:16:57.652Z,74.58
2022-12-14T05:18:03.151Z,74.43
2022-12-14T05:19:08.804Z,74.34
2022-12-14T05:20:15.540Z,74.51
2022-12-14T05:21:35.324Z,74.58
2022-12-14T05:22:38.099Z,74.55
2022-12-14T05:23:39.694Z,74.37
2022-12-14T05:24:41.167Z,74.60
2022-12-14T05:25:42.581Z,74.57
2022-12-14T05:26:44.331Z,74.63
2022-12-14T05:27:46.027Z,74.43
2022-12-14T05:28:50.497Z,74.46
2022-12-14T05:29:52.228Z,74.50
2022-12-14T05:30:53.684Z,74.56
2022-12-14T05:31:55.214Z,74.53
2022-12-14T05:32:56.829Z,74.23
2022-12-14T05:33:58.510Z,74.62
2022-12-14T05:35:00.368Z,74.45
2022-12-14T05:36:01.978Z,74.46
2022-12-14T05:37:03.569Z,74.29
2022-12-14T05:38:07.732Z,74.24
2022-12-14T05:39:09.185Z,74.43
2022-12-14T05:40:10.917Z,74.54
2022-12-14T05:41:12.528Z,74.43
2022-12-14T05:42:13.974Z,74.31
2022-12-14T05:43:15.422Z,74.38
2022-12-14T05:44:16.755Z,74.50
2022-12-14T05:45:18.161Z,74.63
2022-12-14T05:46:19.591Z,74.95
2022-12-14T05:47:21.075Z,74.74
2022-12-14T05:48:22.387Z,74.56
2022-12-14T05:49:24.602Z,74.56
2022-12-14T05:50:26.230Z,74.46
2022-12-14T05:51:27.630Z,74.51
2022-12-14T05:52:29.086Z,74.50
2022-12-14T05:53:30.717Z,74.49
2022-12-14T05:54:32.413Z,74.42
2022-12-14T05:55:33.945Z,74.54
2022-12-14T05:56:35.446Z,74.45
2022-12-14T05:57:36.963Z,74.54
2022-12-14T05:58:38.762Z,74.46
2022-12-14T05:59:40.294Z,74.43
2022-12-14T06:00:41.823Z,74.43
2022-12-14T06:01:44.231Z,74.26
2022-12-14T06:02:45.916Z,74.53
2022-12-14T06:03:47.583Z,74.54
2022-12-14T06:04:49.240Z,74.26
2022-12-14T06:05:50.732Z,74.55
2022-12-14T06:06:52.196Z,74.65
2022-12-14T06:07:53.642Z,74.76
2022-12-14T06:08:55.129Z,74.53
2022-12-14T06:09:56.597Z,74.73
2022-12-14T06:11:07.873Z,74.51
2022-12-14T06:12:09.426Z,74.59
2022-12-14T06:13:10.926Z,74.57
2022-12-14T06:14:12.842Z,74.76
2022-12-14T06:15:14.300Z,74.77
2022-12-14T06:16:16.888Z,74.64
2022-12-14T06:17:18.344Z,74.78
2022-12-14T06:18:19.841Z,74.51
2022-12-14T06:19:21.253Z,74.84
2022-12-14T06:20:22.746Z,74.53
2022-12-14T06:21:28.516Z,74.66
2022-12-14T06:22:29.886Z,74.44
2022-12-14T06:23:31.263Z,74.45
2022-12-14T06:24:32.584Z,74.42
2022-12-14T06:25:36.507Z,74.57
2022-12-14T06:26:40.252Z,74.37
2022-12-14T06:27:41.741Z,74.39
2022-12-14T06:28:43.679Z,74.50
2022-12-14T06:29:45.164Z,74.56
2022-12-14T06:30:47.545Z,74.85
2022-12-14T06:31:49.732Z,74.53
2022-12-14T06:32:51.230Z,74.65
2022-12-14T06:33:54.058Z,74.67
2022-12-14T06:34:55.578Z,74.73
2022-12-14T06:35:57.167Z,74.73
2022-12-14T06:36:59.972Z,74.83
2022-12-14T06:38:01.565Z,74.57
2022-12-14T06:39:05.561Z,74.67
2022-12-14T06:40:07.399Z,74.58
2022-12-14T06:41:09.083Z,74.72
2022-12-14T06:42:10.822Z,74.74
2022-12-14T06:43:12.710Z,74.65
2022-12-14T06:44:14.259Z,74.73
2022-12-14T06:45:15.707Z,74.79
2022-12-14T06:46:19.157Z,74.76
2022-12-14T06:47:20.853Z,74.73
2022-12-14T06:48:22.341Z,74.70
2022-12-14T06:49:24.057Z,74.55
2022-12-14T06:50:26.978Z,74.94
2022-12-14T06:51:28.539Z,74.90
2022-12-14T06:52:29.984Z,74.84
2022-12-14T06:53:32.414Z,74.53
2022-12-14T06:54:33.881Z,74.50
2022-12-14T06:55:35.295Z,74.55
2022-12-14T06:56:37.697Z,74.20
2022-12-14T06:57:39.229Z,74.54
2022-12-14T06:58:41.011Z,74.61
2022-12-14T06:59:42.543Z,74.50
2022-12-14T07:00:43.953Z,74.47
